Data for 11/30/2012

Time Sea-Level Adjusted Pressure Absolute Pressure Temperature Relative Humidity Dew Point   
(mb) (inHg) (mb) (inHg) (C) (F) (%) (C) (F)
00:05 1013 29.91 842 24.86 6.8 44.3 47 -3.7 25.4
00:10 1013 29.91 842 24.86 6.8 44.2 46 -3.9 25
00:15 1012 29.88 842 24.86 6.9 44.4 45 -4.2 24.5
00:20 1012 29.88 842 24.86 6.9 44.4 47 -3.7 25.3
00:25 1012 29.88 842 24.86 6.8 44.3 47 -3.8 25.2
00:30 1012 29.88 842 24.86 6.7 44.1 47 -3.8 25.2
00:35 1012 29.88 841 24.83 6.5 43.7 49 -3.4 25.9
00:40 1012 29.88 842 24.86 6.6 43.8 47 -3.9 25
00:45 1012 29.88 842 24.86 6.3 43.3 49 -3.6 25.6
00:50 1012 29.88 842 24.86 6.8 44.3 47 -3.7 25.3
00:55 1012 29.88 842 24.86 6.9 44.3 43 -5 23
01:00 1012 29.88 842 24.86 8.6 47.5 37 -5.4 22.3
01:05 1012 29.88 842 24.86 9.3 48.7 35 -5.5 22.1
01:10 1012 29.88 842 24.86 9.8 49.6 35 -5 23
01:15 1012 29.88 841 24.83 9.7 49.4 36 -4.6 23.7
01:20 1012 29.88 841 24.83 9.4 49 37 -4.5 23.8
01:25 1012 29.88 841 24.83 9.2 48.6 37 -4.7 23.6
01:30 1012 29.88 841 24.83 9.3 48.7 38 -4.3 24.3
01:35 1012 29.88 842 24.86 9 48.1 39 -4.2 24.4
01:40 1012 29.88 842 24.86 8.9 48 39 -4.1 24.6
01:45 1012 29.88 842 24.86 8.8 47.8 40 -4.2 24.4
01:50 1012 29.88 842 24.86 8.7 47.7 40 -4.1 24.7
01:55 1012 29.88 842 24.86 8.9 47.9 38 -4.8 23.3
02:00 1012 29.88 842 24.86 9.3 48.7 37 -4.5 24
02:05 1013 29.91 842 24.86 9.4 48.8 36 -4.9 23.2
02:10 1013 29.91 842 24.86 9.8 49.7 35 -4.8 23.3
02:15 1013 29.91 842 24.86 9.7 49.5 36 -4.4 24
02:20 1013 29.91 842 24.86 9.5 49.1 37 -4.3 24.2
02:25 1013 29.91 842 24.86 9.3 48.8 38 -4.3 24.2
02:30 1013 29.91 842 24.86 9.3 48.7 36 -4.9 23.1
02:35 1012 29.88 842 24.86 9.6 49.3 36 -4.6 23.7
02:40 1012 29.88 842 24.86 9.5 49.1 37 -4.3 24.2
02:45 1012 29.88 841 24.83 9.2 48.5 38 -4.5 23.9
02:50 1012 29.88 841 24.83 8.6 47.5 43 -3.3 26.1
02:55 1012 29.88 841 24.83 7.4 45.3 44 -3.9 25
03:00 1012 29.88 841 24.83 7 44.6 46 -3.7 25.3
03:05 1012 29.88 841 24.83 6.8 44.2 47 -3.8 25.1
03:10 1012 29.88 841 24.83 6.8 44.3 46 -3.9 25
03:15 1012 29.88 841 24.83 6.7 44.1 46 -4 24.9
03:20 1012 29.88 841 24.83 6.9 44.4 46 -3.9 25
03:25 1012 29.88 841 24.83 7 44.6 45 -4.2 24.5
03:30 1012 29.88 841 24.83 7.3 45.1 45 -4 24.9
03:35 1012 29.88 841 24.83 7.2 45 45 -3.9 24.9
03:40 1011 29.85 841 24.83 7.3 45.1 44 -4.1 24.6
03:45 1011 29.85 840 24.81 7.8 46 43 -4.1 24.6
03:50 1011 29.85 840 24.81 7.8 46.1 43 -4 24.8
03:55 1011 29.85 840 24.81 8 46.4 42 -4 24.7
04:00 1011 29.85 840 24.81 7.9 46.2 45 -3.2 26.3
04:05 1011 29.85 840 24.81 7.4 45.4 44 -3.9 25
04:10 1011 29.85 840 24.81 8.2 46.7 42 -3.8 25.1
04:15 1011 29.85 840 24.81 7.8 46 44 -3.5 25.6
04:20 1011 29.85 840 24.81 8 46.4 43 -3.9 25.1
04:25 1011 29.85 840 24.81 8 46.4 45 -3.2 26.2
04:30 1011 29.85 840 24.81 7.4 45.4 46 -3.6 25.6
04:35 1011 29.85 840 24.81 7.3 45.2 45 -3.7 25.3
04:40 1011 29.85 840 24.81 7.3 45.1 45 -3.7 25.4
04:45 1011 29.85 840 24.81 7.4 45.4 45 -3.7 25.3
04:50 1011 29.85 840 24.81 7.5 45.6 44 -3.9 25
04:55 1010 29.83 840 24.81 7.7 45.9 44 -3.7 25.4
05:00 1011 29.85 840 24.81 7.7 45.8 44 -3.8 25.2
05:05 1010 29.83 840 24.81 7.8 46 44 -3.6 25.5
05:10 1010 29.83 840 24.81 7.7 45.8 44 -3.7 25.4
05:15 1010 29.83 839 24.78 7.9 46.2 44 -3.6 25.5
05:20 1010 29.83 839 24.78 7.8 46 45 -3.4 25.8
05:25 1010 29.83 839 24.78 7.5 45.6 46 -3.3 26
05:30 1010 29.83 839 24.78 7.4 45.3 46 -3.4 25.9
05:35 1010 29.83 839 24.78 7.3 45.1 47 -3.4 25.9
05:40 1010 29.83 839 24.78 7.2 45 47 -3.4 26
05:45 1010 29.83 839 24.78 7.4 45.2 46 -3.4 25.9
05:50 1010 29.83 839 24.78 7.3 45.1 46 -3.5 25.7
05:55 1010 29.83 839 24.78 7.5 45.6 46 -3.5 25.8
06:00 1010 29.83 839 24.78 7.5 45.4 46 -3.4 25.8
06:05 1010 29.83 839 24.78 7.6 45.6 45 -3.6 25.6
06:10 1010 29.83 840 24.81 7.7 45.9 45 -3.3 26
06:15 1010 29.83 840 24.81 7.6 45.7 46 -3.2 26.2
06:20 1010 29.83 840 24.81 7.6 45.6 46 -3.3 26.1
06:25 1011 29.85 840 24.81 7.7 45.8 44 -3.6 25.4
06:30 1010 29.83 840 24.81 8 46.3 44 -3.6 25.6
06:35 1010 29.83 840 24.81 8.1 46.6 44 -3.3 26
06:40 1010 29.83 840 24.81 7.8 46 45 -3.5 25.8
06:45 1010 29.83 839 24.78 8 46.5 44 -3.5 25.7
06:50 1010 29.83 839 24.78 8.2 46.8 44 -3.4 25.9
06:55 1010 29.83 839 24.78 8.2 46.8 44 -3.4 25.9
07:00 1010 29.83 839 24.78 8.5 47.2 43 -3.4 25.9
07:05 1010 29.83 839 24.78 8.9 48 41 -3.6 25.5
07:10 1010 29.83 839 24.78 8.9 48.1 42 -3.4 25.9
07:15 1010 29.83 839 24.78 9.1 48.4 42 -3.2 26.2
07:20 1010 29.83 839 24.78 9.4 48.8 42 -3 26.6
07:25 1010 29.83 839 24.78 9.7 49.4 41 -2.8 26.9
07:30 1010 29.83 839 24.78 9.8 49.6 41 -2.7 27.1
07:35 1010 29.83 839 24.78 9.9 49.8 42 -2.4 27.7
07:40 1010 29.83 839 24.78 10 50 42 -2.4 27.6
07:45 1010 29.83 839 24.78 10 50 42 -2.3 27.9
07:50 1010 29.83 839 24.78 9.9 49.8 43 -2.2 28.1
07:55 1010 29.83 839 24.78 9.9 49.9 43 -2.1 28.2
08:00 1010 29.83 839 24.78 10 49.9 42 -2.2 28
08:05 1010 29.83 839 24.78 10.1 50.2 42 -2.2 28
08:10 1010 29.83 839 24.78 10.3 50.5 41 -2.2 28
08:15 1010 29.83 839 24.78 9.9 49.8 42 -2.5 27.5
08:20 1010 29.83 839 24.78 9.1 48.4 44 -2.4 27.7
08:25 1010 29.83 839 24.78 8.7 47.6 46 -2.4 27.7
08:30 1010 29.83 839 24.78 8.3 47 47 -2.4 27.6
08:35 1010 29.83 839 24.78 8.5 47.2 46 -2.4 27.8
08:40 1009 29.8 839 24.78 8.8 47.9 43 -3.1 26.5
08:45 1009 29.8 838 24.75 9.1 48.4 45 -2 28.4
08:50 1009 29.8 838 24.75 8.7 47.6 46 -2.2 28.1
08:55 1009 29.8 838 24.75 8.7 47.7 47 -2.1 28.3
09:00 1009 29.8 838 24.75 8.4 47.2 48 -1.8 28.8
09:05 1009 29.8 838 24.75 8.6 47.5 46 -2.2 28
09:10 1009 29.8 838 24.75 9.2 48.5 43 -2.8 27
09:15 1009 29.8 838 24.75 9.7 49.5 44 -2 28.3
09:20 1009 29.8 838 24.75 9.5 49 46 -1.5 29.3
09:25 1009 29.8 838 24.75 9.3 48.7 42 -2.9 26.9
09:30 1009 29.8 838 24.75 10.1 50.3 41 -2.6 27.3
09:35 1009 29.8 838 24.75 10.4 50.8 40 -2.6 27.3
09:40 1009 29.8 838 24.75 10.5 51 40 -2.3 27.8
09:45 1009 29.8 838 24.75 10.5 50.9 40 -2.6 27.4
09:50 1009 29.8 838 24.75 10.4 50.7 41 -2.2 28
09:55 1009 29.8 838 24.75 10.4 50.8 40 -2.5 27.5
10:00 1009 29.8 838 24.75 11 51.8 39 -2.2 28
10:05 1009 29.8 838 24.75 11.1 51.9 41 -1.8 28.8
10:10 1009 29.8 838 24.75 11.2 52.1 40 -1.9 28.6
10:15 1009 29.8 838 24.75 11.3 52.3 39 -2 28.4
10:20 1009 29.8 838 24.75 11.3 52.4 41 -1.6 29.2
10:25 1009 29.8 838 24.75 11.1 51.9 43 -1 30.1
10:30 1009 29.8 838 24.75 10.9 51.5 43 -1.2 29.9
10:35 1008 29.77 838 24.75 11 51.7 41 -1.9 28.6
10:40 1008 29.77 838 24.75 11 51.8 41 -1.8 28.8
10:45 1008 29.77 838 24.75 11.1 51.9 41 -1.6 29.2
10:50 1008 29.77 838 24.75 11 51.8 40 -2 28.4
10:55 1008 29.77 837 24.72 11.1 52 41 -1.5 29.3
11:00 1008 29.77 837 24.72 11.1 52 41 -1.7 29
11:05 1008 29.77 837 24.72 11.1 51.9 42 -1.5 29.4
11:10 1008 29.77 837 24.72 11.1 52 41 -1.7 29
11:15 1008 29.77 837 24.72 11.2 52.1 40 -1.9 28.5
11:20 1008 29.77 837 24.72 11.2 52.2 40 -1.7 28.9
11:25 1008 29.77 837 24.72 11.2 52.1 42 -1.4 29.6
11:30 1008 29.77 837 24.72 11.2 52.2 39 -2 28.3
11:35 1008 29.77 837 24.72 11.3 52.3 39 -2.1 28.3
11:40 1008 29.77 837 24.72 11.2 52.2 39 -2 28.4
11:45 1008 29.77 837 24.72 11.3 52.3 40 -1.7 28.9
11:50 1007 29.74 837 24.72 11.3 52.4 39 -1.9 28.6
11:55 1007 29.74 837 24.72 11.3 52.3 40 -1.8 28.8
12:00 1007 29.74 837 24.72 11.2 52.1 40 -1.9 28.5
12:05 1008 29.77 837 24.72 11.2 52.2 40 -1.8 28.8
12:10 1007 29.74 837 24.72 11.1 52.1 40 -1.8 28.8
12:15 1007 29.74 836 24.69 11.1 52 42 -1.4 29.5
12:20 1007 29.74 837 24.72 10.8 51.5 42 -1.5 29.4
12:25 1007 29.74 837 24.72 10.7 51.3 44 -1 30.2
12:30 1007 29.74 837 24.72 10.6 51 45 -0.9 30.4
12:35 1007 29.74 836 24.69 10.5 50.8 43 -1.5 29.3
12:40 1007 29.74 836 24.69 10.6 51.1 43 -1.5 29.3
12:45 1007 29.74 836 24.69 10.7 51.2 43 -1.3 29.7
12:50 1007 29.74 836 24.69 10.5 50.9 45 -0.9 30.3
12:55 1007 29.74 836 24.69 10.4 50.6 45 -1.1 30
13:00 1007 29.74 836 24.69 10.5 50.8 45 -1 30.3
13:05 1007 29.74 836 24.69 10.3 50.6 46 -0.8 30.6
13:10 1007 29.74 836 24.69 10.3 50.5 45 -1.1 30
13:15 1007 29.74 836 24.69 10.5 50.8 45 -1 30.2
13:20 1007 29.74 836 24.69 10.3 50.6 46 -0.6 30.9
13:25 1007 29.74 836 24.69 10.3 50.5 45 -1.1 30.1
13:30 1007 29.74 836 24.69 10.3 50.6 46 -0.8 30.5
13:35 1007 29.74 837 24.72 10.3 50.5 46 -0.6 30.8
13:40 1007 29.74 837 24.72 10.3 50.5 47 -0.6 30.9
13:45 1007 29.74 836 24.69 10.1 50.2 48 -0.4 31.4
13:50 1007 29.74 836 24.69 9.8 49.7 50 -0.1 31.8
13:55 1007 29.74 836 24.69 9.6 49.3 51 0 32
14:00 1007 29.74 836 24.69 9.5 49.1 51 -0.1 31.8
14:05 1007 29.74 836 24.69 9.5 49 50 -0.3 31.4
14:10 1007 29.74 836 24.69 9.5 49.1 50 -0.5 31.1
14:15 1007 29.74 836 24.69 9.6 49.2 51 -0 32
14:20 1007 29.74 836 24.69 9.5 49.1 50 -0.4 31.3
14:25 1007 29.74 836 24.69 9.7 49.5 49 -0.4 31.3
14:30 1007 29.74 836 24.69 9.8 49.6 49 -0.4 31.3
14:35 1007 29.74 836 24.69 9.9 49.7 49 -0.4 31.3
14:40 1007 29.74 836 24.69 9.9 49.8 48 -0.5 31
14:45 1007 29.74 836 24.69 10 50 48 -0.6 30.9
14:50 1007 29.74 836 24.69 10.2 50.3 46 -1 30.1
14:55 1007 29.74 836 24.69 10.4 50.6 45 -1.1 30.1
15:00 1007 29.74 836 24.69 10.4 50.8 45 -1 30.2
15:05 1007 29.74 836 24.69 10.4 50.7 46 -0.8 30.6
15:10 1007 29.74 836 24.69 10.4 50.7 45 -1.1 30
15:15 1007 29.74 836 24.69 10.4 50.8 45 -1 30.1
15:20 1007 29.74 836 24.69 10.4 50.7 43 -1.6 29.1
15:25 1007 29.74 836 24.69 10.4 50.8 43 -1.6 29.1
15:30 1007 29.74 836 24.69 10.5 50.9 43 -1.6 29.1
15:35 1007 29.74 836 24.69 10.5 51 41 -2.1 28.2
15:40 1007 29.74 836 24.69 10.7 51.2 41 -2.1 28.2
15:45 1007 29.74 836 24.69 10.6 51.1 42 -1.7 28.9
15:50 1007 29.74 836 24.69 10.5 50.8 42 -1.9 28.5
15:55 1007 29.74 836 24.69 10.5 50.8 42 -2 28.5
16:00 1007 29.74 837 24.72 10.6 51 40 -2.3 27.8
16:05 1007 29.74 837 24.72 10.6 51 41 -1.9 28.5
16:10 1007 29.74 837 24.72 10.5 50.9 41 -2.1 28.2
16:15 1008 29.77 837 24.72 10.5 50.9 42 -2 28.4
16:20 1008 29.77 837 24.72 10.4 50.7 44 -1.4 29.5
16:25 1008 29.77 837 24.72 10.1 50.2 46 -1 30.2
16:30 1008 29.77 837 24.72 9.8 49.7 47 -0.9 30.3
16:35 1008 29.77 837 24.72 9.7 49.4 47 -1.2 29.9
16:40 1008 29.77 837 24.72 9.8 49.6 45 -1.4 29.4
16:45 1008 29.77 837 24.72 9.9 49.9 45 -1.3 29.6
16:50 1008 29.77 837 24.72 9.9 49.9 45 -1.3 29.7
16:55 1008 29.77 837 24.72 9.9 49.8 46 -1.3 29.7
17:00 1008 29.77 837 24.72 9.9 49.9 45 -1.3 29.6
17:05 1008 29.77 837 24.72 9.9 49.8 48 -0.5 31
17:10 1008 29.77 838 24.75 9 48.1 56 0.8 33.4
17:15 1008 29.77 838 24.75 8.2 46.8 58 0.6 33
17:20 1009 29.8 838 24.75 7.9 46.1 61 0.9 33.6
17:25 1009 29.8 838 24.75 7.5 45.5 63 0.9 33.6
17:30 1009 29.8 838 24.75 7.3 45.2 64 0.9 33.6
17:35 1009 29.8 838 24.75 7.2 45 64 0.9 33.5
17:40 1009 29.8 838 24.75 7.2 44.9 64 0.8 33.5
17:45 1009 29.8 838 24.75 7.1 44.7 66 1.1 34
17:50 1009 29.8 838 24.75 6.8 44.3 67 1.1 34
17:55 1009 29.8 838 24.75 6.7 44.1 67 1.1 34
18:00 1009 29.8 838 24.75 6.7 44 67 1 33.7
18:05 1009 29.8 838 24.75 6.7 44 67 1 33.9
18:10 1009 29.8 838 24.75 6.5 43.8 69 1.4 34.5
18:15 1009 29.8 838 24.75 6.4 43.6 69 1.1 34
18:20 1009 29.8 838 24.75 6.4 43.5 70 1.3 34.3
18:25 1009 29.8 838 24.75 6.4 43.6 72 1.8 35.3
18:30 1009 29.8 838 24.75 6.1 43 72 1.5 34.6
18:35 1009 29.8 838 24.75 6.1 42.9 74 1.8 35.2
18:40 1009 29.8 838 24.75 6.1 43 74 1.8 35.3
18:45 1009 29.8 838 24.75 5.9 42.6 75 1.7 35.1
18:50 1009 29.8 838 24.75 6 42.7 73 1.5 34.7
18:55 1009 29.8 838 24.75 6 42.8 73 1.6 34.8
19:00 1009 29.8 838 24.75 6 42.8 75 1.9 35.4
19:05 1009 29.8 838 24.75 5.9 42.6 73 1.4 34.5
19:10 1009 29.8 839 24.78 6.2 43.1 73 1.6 35
19:15 1009 29.8 839 24.78 6.4 43.6 74 2.1 35.7
19:20 1009 29.8 839 24.78 6.2 43.2 75 2.1 35.8
19:25 1009 29.8 839 24.78 6.2 43.2 72 1.6 34.9
19:30 1009 29.8 839 24.78 6.5 43.6 71 1.5 34.7
19:35 1009 29.8 839 24.78 6.7 44 69 1.4 34.6
19:40 1010 29.83 839 24.78 6.9 44.5 67 1.3 34.3
19:45 1009 29.8 839 24.78 6.9 44.5 68 1.4 34.5
19:50 1010 29.83 839 24.78 6.9 44.5 69 1.6 34.9
19:55 1010 29.83 839 24.78 6.9 44.4 69 1.6 34.9
20:00 1010 29.83 839 24.78 6.8 44.3 70 1.8 35.2
20:05 1010 29.83 839 24.78 6.6 43.9 69 1.4 34.5
20:10 1010 29.83 839 24.78 6.3 43.3 69 0.9 33.7
20:15 1010 29.83 839 24.78 6.1 43 70 1 33.8
20:20 1010 29.83 839 24.78 5.9 42.7 71 1.1 33.9
20:25 1010 29.83 839 24.78 5.8 42.4 72 1.1 34
20:30 1010 29.83 839 24.78 5.6 42.1 72 1 33.7
20:35 1010 29.83 839 24.78 5.5 41.8 74 1.1 34
20:40 1010 29.83 839 24.78 5.3 41.6 74 1.1 34
20:45 1010 29.83 839 24.78 5.2 41.4 73 0.8 33.4
20:50 1010 29.83 839 24.78 5.3 41.6 73 0.8 33.5
20:55 1010 29.83 839 24.78 5.3 41.6 73 1 33.7
21:00 1010 29.83 839 24.78 5.3 41.6 72 0.7 33.3
21:05 1010 29.83 839 24.78 5.5 41.9 72 0.8 33.4
21:10 1010 29.83 839 24.78 5.6 42 72 0.9 33.5
21:15 1010 29.83 839 24.78 5.5 41.9 72 0.9 33.6
21:20 1010 29.83 839 24.78 5.6 42.1 72 1 33.7
21:25 1010 29.83 839 24.78 5.6 42.1 73 1.1 33.9
21:30 1010 29.83 839 24.78 5.6 42 73 1.1 33.9
21:35 1010 29.83 839 24.78 5.6 42 71 0.7 33.3
21:40 1010 29.83 839 24.78 5.6 42.1 73 1.1 34
21:45 1010 29.83 839 24.78 5.3 41.5 77 1.5 34.8
21:50 1010 29.83 839 24.78 4.8 40.7 79 1.5 34.7
21:55 1010 29.83 839 24.78 4.7 40.5 78 1.2 34.2
22:00 1010 29.83 839 24.78 4.7 40.5 79 1.3 34.4
22:05 1010 29.83 839 24.78 4.7 40.4 78 1.2 34.2
22:10 1010 29.83 839 24.78 4.7 40.5 78 1.2 34.1
22:15 1010 29.83 839 24.78 4.8 40.7 76 0.9 33.7
22:20 1010 29.83 839 24.78 4.9 40.8 76 1.1 33.9
22:25 1010 29.83 839 24.78 4.9 40.7 76 0.9 33.7
22:30 1010 29.83 839 24.78 4.8 40.7 75 0.8 33.5
22:35 1009 29.8 839 24.78 4.9 40.8 75 0.9 33.6
22:40 1009 29.8 839 24.78 4.9 40.8 75 0.8 33.5
22:45 1009 29.8 839 24.78 4.9 40.8 75 0.9 33.6
22:50 1009 29.8 839 24.78 4.9 40.9 73 0.6 33
22:55 1009 29.8 839 24.78 5.1 41.2 74 0.8 33.5
23:00 1009 29.8 839 24.78 5.1 41.2 73 0.6 33.1
23:05 1009 29.8 839 24.78 5.2 41.4 73 0.7 33.3
23:10 1010 29.83 839 24.78 5.2 41.4 72 0.6 33.1
23:15 1009 29.8 839 24.78 5.2 41.4 73 0.8 33.5
23:20 1009 29.8 839 24.78 5.2 41.3 73 0.7 33.2
23:25 1010 29.83 839 24.78 5 41 73 0.6 33
23:30 1010 29.83 839 24.78 4.9 40.9 73 0.6 33
23:35 1010 29.83 839 24.78 4.9 40.8 74 0.7 33.2
23:40 1010 29.83 839 24.78 4.5 40.2 76 0.6 33.1
23:45 1010 29.83 839 24.78 4.3 39.8 76 0.4 32.8
23:50 1010 29.83 839 24.78 4.1 39.5 78 0.6 33.1
23:55 1010 29.83 839 24.78 3.8 38.9 80 0.6 33.1
24:00 1010 29.83 839 24.78 3.7 38.7 79 0.4 32.7